Time;durP1;ratioP1;P1;durP2;ratioP2;P2;SDS_P1;SDS_P2;PMS_P1;PMS_P2;Temp;Humidity;BMP_temperature;BMP_pressure;BME280_temperature;BME280_humidity;BME280_pressure;Samples;Min_cycle;Max_cycle;Signal;HPM_P1;HPM_P2
2022/11/01 00:01:14;;;;;;;13.23;5.90;;;;;;;12.25;100.00;100112.66;5044048;28;20460;-53
2022/11/01 00:03:40;;;;;;;23.83;8.60;;;;;;;12.15;100.00;100120.97;5035333;28;20455;-53
2022/11/01 00:06:07;;;;;;;12.03;7.17;;;;;;;12.12;100.00;100128.22;5042790;28;20534;-53
2022/11/01 00:08:33;;;;;;;26.87;8.87;;;;;;;12.11;100.00;100118.50;5042200;28;20860;-53
2022/11/01 00:11:02;;;;;;;11.90;7.93;;;;;;;11.88;100.00;100116.69;5036938;28;20451;-52
2022/11/01 00:13:28;;;;;;;10.80;5.40;;;;;;;12.03;100.00;100113.44;5038301;28;20529;-53
2022/11/01 00:15:55;;;;;;;7.40;6.73;;;;;;;12.12;100.00;100115.78;5043462;28;20850;-53
2022/11/01 00:18:21;;;;;;;20.77;5.33;;;;;;;12.01;100.00;100112.63;5042231;28;20490;-53
2022/11/01 00:20:47;;;;;;;16.43;9.00;;;;;;;12.03;100.00;100117.91;5036808;28;20455;-52
2022/11/01 00:23:14;;;;;;;19.03;5.70;;;;;;;12.02;100.00;100117.03;5037596;28;20467;-53
2022/11/01 00:25:40;;;;;;;6.90;4.30;;;;;;;11.88;100.00;100105.16;5049243;28;20468;-53
2022/11/01 00:28:07;;;;;;;10.30;6.40;;;;;;;11.99;100.00;100108.31;5050062;28;20462;-53
2022/11/01 00:30:37;;;;;;;46.53;7.97;;;;;;;11.94;100.00;100102.28;5043323;28;20464;-53
2022/11/01 00:33:04;;;;;;;6.23;5.70;;;;;;;11.88;100.00;100099.84;5042233;28;20466;-53
2022/11/01 00:35:31;;;;;;;5.93;5.17;;;;;;;12.03;100.00;100096.59;5046530;28;20528;-53
2022/11/01 00:37:59;;;;;;;6.27;5.63;;;;;;;12.20;100.00;100087.94;5041324;28;20499;-53
2022/11/01 00:40:26;;;;;;;6.17;5.77;;;;;;;12.11;100.00;100083.88;5037225;28;20956;-52
2022/11/01 00:42:52;;;;;;;8.73;5.30;;;;;;;12.09;100.00;100080.41;5046820;28;20433;-53
2022/11/01 00:45:19;;;;;;;8.10;5.17;;;;;;;11.95;100.00;100072.94;5029895;28;21004;-52
2022/11/01 00:47:46;;;;;;;7.10;5.80;;;;;;;11.98;100.00;100083.47;5043898;28;20442;-52
2022/11/01 00:50:12;;;;;;;31.10;7.13;;;;;;;12.08;100.00;100076.00;5037606;28;20512;-54
2022/11/01 00:52:39;;;;;;;15.13;6.47;;;;;;;12.13;100.00;100082.00;5045482;28;20437;-53
2022/11/01 00:55:05;;;;;;;9.33;6.93;;;;;;;12.12;100.00;100074.94;5041257;28;20426;-54
2022/11/01 00:57:32;;;;;;;6.23;5.57;;;;;;;12.08;100.00;100074.19;5042808;28;20455;-52
2022/11/01 00:59:58;;;;;;;14.33;7.23;;;;;;;12.18;100.00;100071.16;5037481;28;20455;-53
2022/11/01 01:02:25;;;;;;;12.43;6.40;;;;;;;12.15;100.00;100074.81;5042655;28;20528;-52
2022/11/01 01:04:51;;;;;;;6.80;6.10;;;;;;;12.17;100.00;100075.63;5035423;28;20852;-53
2022/11/01 01:07:17;;;;;;;8.13;6.67;;;;;;;12.16;100.00;100069.44;5034432;28;20476;-52
2022/11/01 01:09:44;;;;;;;13.90;7.63;;;;;;;12.28;100.00;100070.75;5041610;28;20422;-53
2022/11/01 01:12:10;;;;;;;9.00;6.03;;;;;;;12.19;100.00;100067.56;5038708;28;20463;-53
2022/11/01 01:14:37;;;;;;;10.47;6.00;;;;;;;12.24;100.00;100062.94;5041239;28;20426;-53
2022/11/01 01:17:03;;;;;;;10.43;4.37;;;;;;;12.21;100.00;100053.28;5041938;28;20483;-53
2022/11/01 01:19:30;;;;;;;10.57;6.20;;;;;;;12.36;100.00;100050.00;5037621;28;20522;-53
2022/11/01 01:21:56;;;;;;;10.67;6.43;;;;;;;12.64;100.00;100064.91;5036064;28;20452;-53
2022/11/01 01:24:22;;;;;;;6.43;5.70;;;;;;;12.41;100.00;100065.81;5041647;28;20879;-53
2022/11/01 01:26:49;;;;;;;6.93;6.10;;;;;;;12.29;100.00;100072.50;5062143;28;20470;-53
2022/11/01 01:29:16;;;;;;;16.83;6.17;;;;;;;12.33;100.00;100066.09;5039199;28;21022;-53
2022/11/01 01:31:42;;;;;;;5.20;4.50;;;;;;;12.26;100.00;100066.41;5043144;28;20463;-53
2022/11/01 01:34:08;;;;;;;7.83;5.13;;;;;;;12.30;100.00;100070.69;5048877;28;20929;-53
2022/11/01 01:36:35;;;;;;;7.40;6.20;;;;;;;12.20;100.00;100069.31;5049383;28;20557;-52
2022/11/01 01:39:02;;;;;;;7.83;6.87;;;;;;;12.15;100.00;100066.81;5043734;28;20485;-52
2022/11/01 01:44:50;;;;;;;5.27;4.77;;;;;;;12.22;100.00;100064.81;5038709;28;20471;-52
2022/11/01 01:47:30;;;;;;;4.90;4.43;;;;;;;12.26;100.00;100058.41;5028857;28;20505;-54
2022/11/01 01:50:05;;;;;;;6.93;6.33;;;;;;;12.32;100.00;100066.16;5048580;28;20443;-52
2022/11/01 01:52:38;;;;;;;7.57;6.87;;;;;;;12.27;100.00;100065.47;5047729;28;20882;-53
2022/11/01 01:55:07;;;;;;;6.60;6.00;;;;;;;12.13;100.00;100058.03;5037732;28;20505;-54
2022/11/01 01:57:35;;;;;;;4.70;4.03;;;;;;;12.14;100.00;100057.09;5035219;28;20874;-53
2022/11/01 02:00:04;;;;;;;8.00;6.30;;;;;;;12.17;100.00;100056.97;5048818;28;20459;-52
2022/11/01 02:02:31;;;;;;;10.23;6.50;;;;;;;12.14;100.00;100065.09;5035273;28;20430;-54
2022/11/01 02:05:02;;;;;;;8.27;4.03;;;;;;;12.09;100.00;100059.09;5028664;28;20832;-53
2022/11/01 02:07:29;;;;;;;9.10;7.00;;;;;;;12.06;100.00;100062.75;5042049;28;20463;-53
2022/11/01 02:09:56;;;;;;;11.37;6.13;;;;;;;12.13;100.00;100072.22;5038773;28;20476;-53
2022/11/01 02:12:28;;;;;;;7.80;5.27;;;;;;;12.25;100.00;100072.69;5035116;28;20495;-53
2022/11/01 02:14:55;;;;;;;6.80;6.40;;;;;;;12.18;100.00;100061.38;5037357;28;20514;-53
2022/11/01 02:17:29;;;;;;;6.70;6.00;;;;;;;12.20;100.00;100058.63;5041282;28;20553;-54
2022/11/01 02:20:33;;;;;;;4.87;4.33;;;;;;;12.14;100.00;100059.75;5041332;28;20496;-53
2022/11/01 02:23:36;;;;;;;5.47;4.93;;;;;;;12.22;100.00;100072.81;5028673;28;20458;-53
2022/11/01 02:26:05;;;;;;;8.67;7.00;;;;;;;12.14;100.00;100067.75;5048155;28;21137;-53
2022/11/01 02:29:09;;;;;;;8.20;7.20;;;;;;;12.06;100.00;100059.19;5047304;28;20509;-53
2022/11/01 02:32:13;;;;;;;16.00;7.93;;;;;;;12.09;100.00;100059.94;5045641;28;20826;-53
2022/11/01 02:35:11;;;;;;;12.70;4.83;;;;;;;12.12;100.00;100066.94;5045371;28;20458;-53
2022/11/01 02:37:53;;;;;;;9.73;5.40;;;;;;;12.07;100.00;100055.63;5043513;28;20512;-54
2022/11/01 02:40:28;;;;;;;5.57;5.00;;;;;;;12.20;100.00;100047.97;5045435;28;20823;-54
2022/11/01 02:43:02;;;;;;;13.60;7.50;;;;;;;12.33;100.00;100046.56;5044850;28;21011;-53
2022/11/01 02:45:46;;;;;;;13.97;6.63;;;;;;;12.27;100.00;100047.69;5041292;28;20467;-53
2022/11/01 02:48:13;;;;;;;15.00;5.17;;;;;;;12.23;100.00;100055.88;5038525;28;21001;-54
2022/11/01 02:50:43;;;;;;;24.57;6.17;;;;;;;12.23;100.00;100074.53;5022449;28;20929;-53
2022/11/01 02:53:10;;;;;;;15.23;5.10;;;;;;;12.28;100.00;100089.41;5044777;28;20870;-54
2022/11/01 02:55:37;;;;;;;14.57;8.40;;;;;;;12.23;100.00;100086.06;5044615;28;20704;-55
2022/11/01 02:58:26;;;;;;;11.17;6.87;;;;;;;12.27;100.00;100105.47;5038218;28;20454;-54
2022/11/01 03:00:54;;;;;;;12.63;5.27;;;;;;;12.30;100.00;100113.34;5038585;28;20474;-54
2022/11/01 03:03:25;;;;;;;10.03;7.53;;;;;;;12.28;100.00;100123.19;5042040;28;20945;-53
2022/11/01 03:05:56;;;;;;;7.27;6.47;;;;;;;12.26;100.00;100122.38;5044895;28;20525;-53
2022/11/01 03:08:37;;;;;;;10.50;6.10;;;;;;;12.15;100.00;100117.44;5039964;28;20456;-54
2022/11/01 03:11:12;;;;;;;16.97;6.37;;;;;;;12.23;100.00;100119.84;5039355;28;20460;-53
2022/11/01 03:14:03;;;;;;;10.73;7.43;;;;;;;12.05;100.00;100111.59;5037672;28;21694;-53
2022/11/01 03:16:42;;;;;;;13.53;6.70;;;;;;;12.35;100.00;100103.38;5041307;28;20537;-52
2022/11/01 03:19:39;;;;;;;11.67;9.27;;;;;;;12.08;100.00;100089.31;5050416;28;20491;-51
2022/11/01 03:22:14;;;;;;;89.53;7.83;;;;;;;12.34;100.00;100097.19;5048610;28;20917;-52
2022/11/01 03:24:52;;;;;;;8.07;5.07;;;;;;;12.23;100.00;100082.53;5040242;28;20911;-51
2022/11/01 03:27:32;;;;;;;6.40;5.07;;;;;;;12.19;100.00;100072.91;5050842;28;20466;-52
2022/11/01 03:30:12;;;;;;;6.20;5.73;;;;;;;12.32;100.00;100071.50;5036356;28;20937;-52
2022/11/01 03:32:49;;;;;;;8.80;6.70;;;;;;;12.22;100.00;100064.81;5042862;28;20466;-54
2022/11/01 03:35:23;;;;;;;6.17;5.57;;;;;;;12.40;100.00;100061.41;5050389;28;20475;-52
2022/11/01 03:37:53;;;;;;;8.40;6.43;;;;;;;12.39;100.00;100063.22;5038968;28;20451;-52
2022/11/01 03:40:23;;;;;;;5.27;4.57;;;;;;;12.49;100.00;100069.06;5046599;28;20549;-52
2022/11/01 03:42:53;;;;;;;7.90;5.43;;;;;;;12.55;100.00;100075.91;5037657;28;20513;-51
2022/11/01 03:45:23;;;;;;;7.53;6.40;;;;;;;12.61;100.00;100087.22;5038306;28;20529;-51
2022/11/01 03:47:55;;;;;;;7.87;5.80;;;;;;;12.67;100.00;100094.09;5049303;28;20458;-51
2022/11/01 03:50:26;;;;;;;4.57;3.60;;;;;;;12.75;100.00;100106.22;5033677;28;20953;-51
2022/11/01 03:52:53;;;;;;;6.00;5.30;;;;;;;12.79;100.00;100103.41;5044122;28;20447;-53
2022/11/01 03:55:20;;;;;;;25.00;6.83;;;;;;;12.64;100.00;100104.91;5030544;28;20476;-51
2022/11/01 03:57:46;;;;;;;8.43;6.10;;;;;;;12.48;100.00;100117.97;5044363;28;20458;-51
2022/11/01 04:00:15;;;;;;;12.43;7.67;;;;;;;12.39;100.00;100116.53;5040040;28;20472;-51
2022/11/01 04:02:42;;;;;;;9.50;6.80;;;;;;;12.43;100.00;100117.25;5037117;28;20880;-52
2022/11/01 04:05:10;;;;;;;8.43;7.50;;;;;;;12.39;100.00;100111.19;5041552;28;20431;-52
2022/11/01 04:07:37;;;;;;;21.90;6.40;;;;;;;12.41;100.00;100114.66;5036983;28;20488;-51
2022/11/01 04:10:04;;;;;;;7.37;6.13;;;;;;;12.39;100.00;100111.19;5040500;28;20447;-51
2022/11/01 04:12:31;;;;;;;16.03;6.63;;;;;;;12.45;100.00;100118.94;5043459;28;20798;-52
2022/11/01 04:20:34;;;;;;;7.03;6.20;;;;;;;12.64;100.00;100111.09;5037024;28;20536;-51
2022/11/01 04:23:02;;;;;;;4.70;4.40;;;;;;;12.62;100.00;100101.44;5040282;28;20530;-50
2022/11/01 04:25:30;;;;;;;8.70;6.13;;;;;;;12.65;100.00;100106.63;5047086;28;20482;-52
2022/11/01 04:27:56;;;;;;;8.87;5.63;;;;;;;12.64;100.00;100111.09;5050062;28;20455;-51
2022/11/01 04:30:24;;;;;;;6.47;5.97;;;;;;;12.71;100.00;100114.38;5036452;28;20447;-51
2022/11/01 04:32:51;;;;;;;9.50;6.67;;;;;;;12.74;100.00;100123.09;5047546;28;20474;-59
2022/11/01 04:35:17;;;;;;;32.10;6.47;;;;;;;12.75;100.00;100146.22;5039827;28;20526;-54
2022/11/01 04:37:44;;;;;;;20.60;6.93;;;;;;;12.72;100.00;100154.31;5037812;28;20456;-51
2022/11/01 04:40:14;;;;;;;8.37;7.10;;;;;;;12.85;100.00;100148.50;5043108;28;20991;-51
2022/11/01 04:42:41;;;;;;;7.73;5.43;;;;;;;12.90;100.00;100149.19;5042643;28;20873;-51
2022/11/01 04:45:08;;;;;;;6.47;6.17;;;;;;;12.88;100.00;100153.69;5043293;28;20887;-53
2022/11/01 04:47:34;;;;;;;11.40;6.00;;;;;;;12.90;100.00;100147.41;5031908;28;20459;-54
2022/11/01 04:50:00;;;;;;;12.03;6.80;;;;;;;12.83;100.00;100163.69;5036200;28;20451;-51
2022/11/01 04:52:27;;;;;;;9.07;6.90;;;;;;;12.83;100.00;100153.03;5036074;28;20455;-52
2022/11/01 04:54:53;;;;;;;7.53;6.80;;;;;;;12.88;100.00;100145.69;5036445;28;20437;-51
2022/11/01 04:57:23;;;;;;;18.50;5.90;;;;;;;12.85;100.00;100148.50;5036018;28;20475;-54
2022/11/01 04:59:54;;;;;;;18.13;6.87;;;;;;;12.95;100.00;100144.53;5036414;28;20580;-51
2022/11/01 05:02:22;;;;;;;12.93;6.77;;;;;;;12.94;100.00;100150.81;5035619;28;20451;-52
2022/11/01 05:04:49;;;;;;;8.97;5.97;;;;;;;12.91;100.00;100146.47;5041510;28;20467;-51
2022/11/01 05:07:15;;;;;;;9.97;7.20;;;;;;;12.93;100.00;100152.59;5034256;28;20900;-50
2022/11/01 05:09:42;;;;;;;6.50;5.97;;;;;;;12.99;100.00;100152.34;5041322;28;20932;-52
2022/11/01 05:12:08;;;;;;;7.03;6.40;;;;;;;12.97;100.00;100156.88;5042159;28;20511;-52
2022/11/01 05:14:38;;;;;;;5.27;4.77;;;;;;;12.93;100.00;100165.94;5037987;28;20451;-53
2022/11/01 05:17:04;;;;;;;9.10;6.70;;;;;;;13.00;100.00;100174.56;5035751;28;20479;-51
2022/11/01 05:19:30;;;;;;;7.10;6.10;;;;;;;13.03;100.00;100169.13;5040391;28;20524;-50
2022/11/01 05:21:58;;;;;;;10.30;5.90;;;;;;;12.96;100.00;100176.47;5043056;28;20425;-50
2022/11/01 05:24:25;;;;;;;11.97;5.93;;;;;;;12.91;100.00;100177.59;5038389;28;20430;-52
2022/11/01 05:26:51;;;;;;;6.10;5.70;;;;;;;13.01;100.00;100184.28;5048665;28;20898;-51
2022/11/01 05:29:17;;;;;;;9.00;6.37;;;;;;;12.90;100.00;100174.06;5045854;28;20451;-51
2022/11/01 05:31:56;;;;;;;11.33;6.03;;;;;;;12.96;100.00;100170.28;5035511;28;21072;-51
2022/11/01 05:34:23;;;;;;;9.80;4.47;;;;;;;13.02;100.00;100176.25;5047706;28;20493;-50
2022/11/01 05:36:49;;;;;;;9.00;6.50;;;;;;;12.99;100.00;100176.34;5040684;28;20873;-55
2022/11/01 05:39:15;;;;;;;18.30;6.57;;;;;;;12.99;100.00;100189.69;5029713;28;20483;-51
2022/11/01 05:41:42;;;;;;;5.20;4.70;;;;;;;12.82;100.00;100188.63;5043393;28;20524;-51
2022/11/01 05:44:08;;;;;;;6.93;6.20;;;;;;;12.91;100.00;100199.81;5039024;28;20463;-51
2022/11/01 05:46:35;;;;;;;10.83;5.97;;;;;;;12.83;100.00;100199.25;5035190;28;20479;-51
2022/11/01 05:49:01;;;;;;;7.73;6.97;;;;;;;12.83;100.00;100201.03;5046402;28;20480;-52
2022/11/01 05:51:27;;;;;;;6.97;5.93;;;;;;;12.90;100.00;100200.75;5036636;28;20454;-50
2022/11/01 05:53:54;;;;;;;21.43;7.30;;;;;;;12.85;100.00;100205.38;5044412;28;20455;-51
2022/11/01 05:56:20;;;;;;;10.20;6.07;;;;;;;12.78;100.00;100200.38;5044902;28;20450;-52
2022/11/01 05:58:47;;;;;;;25.93;7.87;;;;;;;12.86;100.00;100195.56;5041763;28;20454;-50
2022/11/01 06:01:16;;;;;;;18.03;6.10;;;;;;;12.68;100.00;100202.50;5043448;28;20455;-51
2022/11/01 06:03:42;;;;;;;5.67;3.87;;;;;;;12.73;100.00;100206.72;5050742;28;20447;-52
2022/11/01 06:06:10;;;;;;;5.03;4.63;;;;;;;12.79;100.00;100212.78;5046029;28;20475;-54
2022/11/01 06:08:37;;;;;;;16.13;5.10;;;;;;;12.91;100.00;100209.63;5038875;28;20455;-51
2022/11/01 06:11:04;;;;;;;6.83;6.13;;;;;;;12.86;100.00;100208.91;5045768;28;20498;-52
2022/11/01 06:13:31;;;;;;;6.83;6.20;;;;;;;12.88;100.00;100213.25;5046151;28;20487;-50
2022/11/01 06:16:00;;;;;;;7.40;6.67;;;;;;;12.89;100.00;100216.81;5037373;28;20550;-51
2022/11/01 06:18:27;;;;;;;5.20;4.80;;;;;;;12.94;100.00;100220.16;5045543;28;20768;-51
2022/11/01 06:20:53;;;;;;;7.57;5.37;;;;;;;12.92;100.00;100230.91;5038149;28;20907;-51
2022/11/01 06:23:20;;;;;;;5.80;5.33;;;;;;;12.94;100.00;100234.38;5046595;28;20454;-54
2022/11/01 06:25:46;;;;;;;9.27;6.30;;;;;;;12.86;100.00;100238.25;5051743;28;20468;-52
2022/11/01 06:28:13;;;;;;;7.90;4.93;;;;;;;12.89;100.00;100244.38;5051625;28;20454;-55
2022/11/01 06:30:39;;;;;;;9.10;6.13;;;;;;;12.85;100.00;100239.19;5040273;28;20801;-53
2022/11/01 06:33:08;;;;;;;9.20;6.07;;;;;;;12.75;100.00;100244.91;5049900;28;20462;-53
2022/11/01 06:35:34;;;;;;;7.10;5.10;;;;;;;12.77;100.00;100254.63;5040337;28;20961;-52
2022/11/01 06:38:05;;;;;;;6.17;4.70;;;;;;;12.78;100.00;100256.38;5038995;28;20491;-52
2022/11/01 06:40:35;;;;;;;11.83;6.17;;;;;;;12.68;100.00;100250.50;5043378;28;20498;-54
2022/11/01 06:43:04;;;;;;;7.70;4.43;;;;;;;12.67;100.00;100246.09;5045452;28;21467;-53
2022/11/01 06:45:32;;;;;;;7.40;5.00;;;;;;;12.68;100.00;100259.38;5032478;28;20477;-55
2022/11/01 06:47:58;;;;;;;4.77;4.47;;;;;;;12.66;100.00;100258.56;5032197;28;20914;-52
2022/11/01 06:50:25;;;;;;;6.13;5.40;;;;;;;12.71;100.00;100261.06;5036221;28;20458;-53
2022/11/01 06:52:55;;;;;;;9.73;4.67;;;;;;;12.79;100.00;100268.78;5045499;28;20880;-53
2022/11/01 06:55:21;;;;;;;6.03;5.73;;;;;;;12.81;100.00;100270.47;5048579;28;20466;-54
2022/11/01 06:57:56;;;;;;;5.33;4.80;;;;;;;12.75;100.00;100268.03;5039265;28;20421;-53
2022/11/01 07:00:23;;;;;;;9.27;5.57;;;;;;;12.72;100.00;100278.78;5051969;28;20589;-57
2022/11/01 07:03:06;;;;;;;4.93;4.20;;;;;;;12.81;100.00;100285.59;5043031;28;20983;-53
2022/11/01 07:05:36;;;;;;;6.10;3.43;;;;;;;12.87;100.00;100282.69;5038427;28;20474;-53
2022/11/01 07:08:06;;;;;;;6.70;4.80;;;;;;;12.92;100.00;100281.59;5044342;28;20546;-54
2022/11/01 07:10:34;;;;;;;2.90;2.70;;;;;;;13.00;100.00;100284.81;5049161;28;20922;-54
2022/11/01 07:13:02;;;;;;;4.60;4.30;;;;;;;13.17;100.00;100292.19;5033806;28;20434;-53
2022/11/01 07:15:30;;;;;;;6.13;5.60;;;;;;;13.25;100.00;100298.13;5044845;28;20458;-55
2022/11/01 07:17:58;;;;;;;5.83;5.23;;;;;;;13.23;100.00;100305.31;5041975;28;20545;-53
2022/11/01 07:20:26;;;;;;;5.50;5.00;;;;;;;13.33;100.00;100309.38;5035800;28;20533;-53
2022/11/01 07:23:01;;;;;;;6.90;6.13;;;;;;;13.37;100.00;100310.13;5042472;28;20463;-53
2022/11/01 07:25:29;;;;;;;8.90;5.80;;;;;;;13.25;100.00;100314.13;5047712;28;20477;-55
2022/11/01 07:27:55;;;;;;;4.83;4.63;;;;;;;13.26;100.00;100304.31;5039919;28;20433;-54
2022/11/01 07:30:22;;;;;;;8.33;5.00;;;;;;;13.30;100.00;100311.31;5041034;28;20492;-58
2022/11/01 07:32:54;;;;;;;6.13;5.57;;;;;;;13.36;100.00;100307.50;5042790;28;20437;-54
2022/11/01 07:35:21;;;;;;;6.37;5.87;;;;;;;13.33;100.00;100306.72;5045360;28;20522;-52
2022/11/01 07:37:47;;;;;;;5.80;5.40;;;;;;;13.43;100.00;100312.56;5046978;28;21012;-52
2022/11/01 07:40:14;;;;;;;8.83;5.30;;;;;;;13.40;100.00;100315.31;5045487;28;20907;-52
2022/11/01 07:42:41;;;;;;;6.47;5.83;;;;;;;13.46;100.00;100325.78;5041571;28;20507;-54
2022/11/01 07:45:09;;;;;;;5.23;4.70;;;;;;;13.55;100.00;100327.19;5043088;28;20453;-53
2022/11/01 07:47:38;;;;;;;9.40;5.93;;;;;;;13.59;100.00;100321.69;5044493;28;20509;-52
2022/11/01 07:50:05;;;;;;;5.53;5.13;;;;;;;13.58;100.00;100332.44;5037698;28;20451;-55
2022/11/01 07:52:32;;;;;;;6.37;4.80;;;;;;;13.70;100.00;100328.38;5037771;28;20463;-53
2022/11/01 07:54:58;;;;;;;4.77;4.57;;;;;;;13.71;100.00;100341.69;5031293;28;20498;-53
2022/11/01 07:57:25;;;;;;;5.50;5.13;;;;;;;13.74;100.00;100343.38;5044650;28;20988;-53
2022/11/01 07:59:51;;;;;;;12.83;7.60;;;;;;;13.69;100.00;100343.53;5038069;28;20469;-53
2022/11/01 08:02:17;;;;;;;6.63;6.10;;;;;;;13.80;100.00;100349.31;5050400;28;20426;-54
2022/11/01 08:04:44;;;;;;;7.70;7.10;;;;;;;13.93;100.00;100352.34;5038052;28;21018;-54
2022/11/01 08:07:10;;;;;;;6.33;5.50;;;;;;;14.00;100.00;100351.19;5037035;28;20475;-54
2022/11/01 08:09:37;;;;;;;5.13;4.60;;;;;;;13.97;100.00;100353.97;5050739;28;20450;-52
2022/11/01 08:12:03;;;;;;;7.50;5.20;;;;;;;14.03;100.00;100358.19;5037266;28;20486;-56
2022/11/01 08:14:30;;;;;;;4.57;4.00;;;;;;;14.14;100.00;100350.59;5025973;28;20460;-53
2022/11/01 08:17:00;;;;;;;7.90;5.27;;;;;;;14.12;100.00;100353.34;5030333;28;20479;-54
2022/11/01 08:19:26;;;;;;;7.57;6.87;;;;;;;14.14;100.00;100355.94;5038125;28;20421;-54
2022/11/01 08:21:56;;;;;;;6.17;5.33;;;;;;;14.20;100.00;100367.25;5049616;28;20516;-53
2022/11/01 08:24:23;;;;;;;7.70;6.20;;;;;;;14.45;100.00;100367.09;5039103;28;20463;-52
2022/11/01 08:26:50;;;;;;;7.00;6.33;;;;;;;14.22;100.00;100362.69;5062845;28;20474;-52
2022/11/01 08:29:17;;;;;;;5.17;4.47;;;;;;;14.23;100.00;100371.59;5050515;28;20462;-57
2022/11/01 08:31:44;;;;;;;10.80;7.07;;;;;;;14.30;100.00;100382.91;5037620;28;20520;-52
2022/11/01 08:34:10;;;;;;;5.90;5.50;;;;;;;14.33;100.00;100388.13;5040522;28;20463;-54
2022/11/01 08:36:42;;;;;;;10.43;5.10;;;;;;;14.45;100.00;100395.66;5047066;28;21024;-53
2022/11/01 08:39:08;;;;;;;3.90;3.57;;;;;;;14.82;100.00;100403.81;5039962;28;20456;-53
2022/11/01 08:41:39;;;;;;;6.47;4.10;;;;;;;15.01;100.00;100405.69;5043811;28;20500;-53
2022/11/01 08:44:06;;;;;;;3.37;3.17;;;;;;;15.05;100.00;100402.78;5041000;28;20869;-53
2022/11/01 08:46:32;;;;;;;3.83;3.53;;;;;;;14.95;100.00;100404.16;5014574;28;20469;-52
2022/11/01 08:48:59;;;;;;;5.90;3.30;;;;;;;15.08;100.00;100409.84;5040962;28;20458;-52
2022/11/01 08:51:26;;;;;;;3.07;2.87;;;;;;;15.10;100.00;100416.84;5050002;28;20566;-52
2022/11/01 08:53:57;;;;;;;6.67;2.17;;;;;;;15.32;100.00;100423.88;5038837;28;20451;-55
2022/11/01 08:56:24;;;;;;;1.80;1.70;;;;;;;15.55;100.00;100425.50;5043331;28;20984;-53
2022/11/01 08:58:51;;;;;;;1.30;1.20;;;;;;;15.60;100.00;100435.09;5042075;28;20521;-53
2022/11/01 09:01:19;;;;;;;1.97;1.00;;;;;;;15.86;100.00;100430.31;5036037;28;20540;-54
2022/11/01 09:03:46;;;;;;;0.63;0.47;;;;;;;16.06;100.00;100432.03;5036895;28;21044;-53
2022/11/01 09:06:12;;;;;;;9.73;1.53;;;;;;;16.04;100.00;100432.13;5033476;28;20453;-53
2022/11/01 09:08:39;;;;;;;0.60;0.60;;;;;;;16.24;100.00;100433.81;5042797;28;20426;-54
2022/11/01 09:11:06;;;;;;;0.60;0.50;;;;;;;16.14;100.00;100444.09;5030120;28;20460;-54
2022/11/01 09:13:33;;;;;;;2.33;0.90;;;;;;;16.30;100.00;100441.53;5042959;28;20491;-53
2022/11/01 09:16:05;;;;;;;3.70;1.30;;;;;;;15.97;98.21;100449.44;5036570;28;20461;-56
2022/11/01 09:18:31;;;;;;;0.50;0.40;;;;;;;15.97;96.00;100457.47;5036049;28;20418;-57
2022/11/01 09:20:58;;;;;;;6.50;0.93;;;;;;;16.01;96.21;100459.06;5049229;28;20564;-56
2022/11/01 09:23:25;;;;;;;0.43;0.37;;;;;;;16.20;95.42;100462.59;5035763;28;20453;-57
2022/11/01 09:25:52;;;;;;;3.30;3.03;;;;;;;16.14;95.92;100457.53;5038757;28;20462;-57
2022/11/01 09:28:19;;;;;;;0.70;0.50;;;;;;;16.29;95.79;100459.44;5053190;28;20475;-56
2022/11/01 09:30:45;;;;;;;0.80;0.60;;;;;;;16.41;97.12;100457.09;5019711;28;20820;-57
2022/11/01 09:33:26;;;;;;;0.77;0.40;;;;;;;16.15;98.30;100458.38;5047137;28;20454;-56
2022/11/01 09:35:53;;;;;;;2.70;0.80;;;;;;;16.36;97.43;100462.72;5045298;28;20515;-57
2022/11/01 09:38:25;;;;;;;0.50;0.40;;;;;;;16.22;98.15;100467.88;5035404;28;20490;-57
2022/11/01 09:41:10;;;;;;;0.60;0.60;;;;;;;16.50;97.33;100467.38;5037187;28;20970;-57
2022/11/01 09:43:39;;;;;;;1.07;0.70;;;;;;;16.41;97.51;100475.88;5036290;28;20446;-57
2022/11/01 09:46:11;;;;;;;1.00;0.50;;;;;;;16.42;94.17;100461.53;5035422;28;20450;-57
2022/11/01 09:48:40;;;;;;;1.33;0.60;;;;;;;16.49;93.22;100479.94;5040263;28;20888;-57
2022/11/01 09:51:14;;;;;;;0.47;0.33;;;;;;;16.36;91.84;100477.94;5042659;28;20446;-56
2022/11/01 09:53:41;;;;;;;0.50;0.37;;;;;;;16.43;90.85;100484.72;5039021;28;20450;-57
2022/11/01 09:56:18;;;;;;;0.53;0.50;;;;;;;16.55;90.01;100486.81;5035472;28;20453;-57
2022/11/01 09:58:44;;;;;;;11.80;0.67;;;;;;;16.72;88.84;100481.50;5048869;28;20425;-57
2022/11/01 10:01:40;;;;;;;1.50;0.43;;;;;;;16.58;88.25;100489.31;5035123;28;20473;-55
2022/11/01 10:04:21;;;;;;;0.70;0.40;;;;;;;16.61;86.82;100482.97;5034855;28;20447;-56
2022/11/01 10:07:01;;;;;;;1.03;0.50;;;;;;;16.88;87.62;100492.34;5037457;28;20951;-56
2022/11/01 10:09:43;;;;;;;0.40;0.30;;;;;;;16.79;87.40;100490.09;5041685;28;20825;-56
2022/11/01 10:12:25;;;;;;;0.50;0.33;;;;;;;16.91;86.65;100499.34;5041587;28;20516;-56
2022/11/01 10:15:16;;;;;;;2.30;2.20;;;;;;;16.74;87.38;100498.41;5021913;28;20428;-56
2022/11/01 10:17:50;;;;;;;0.40;0.30;;;;;;;16.89;85.75;100499.44;5035566;28;20945;-56
2022/11/01 10:20:25;;;;;;;14.07;0.53;;;;;;;16.99;84.89;100502.50;5035091;28;20491;-56
2022/11/01 10:22:52;;;;;;;3.20;0.73;;;;;;;16.94;85.58;100501.88;5021464;28;20897;-56
2022/11/01 10:25:21;;;;;;;0.50;0.40;;;;;;;17.20;84.51;100504.06;5044773;28;20442;-56
2022/11/01 10:28:14;;;;;;;0.80;0.50;;;;;;;17.15;83.24;100496.28;5030809;28;20454;-58
2022/11/01 10:30:47;;;;;;;0.50;0.40;;;;;;;17.07;81.85;100497.59;5040734;28;20465;-56
2022/11/01 10:33:32;;;;;;;5.23;0.53;;;;;;;16.98;81.06;100498.94;5039513;28;20434;-56
2022/11/01 10:36:13;;;;;;;3.90;0.40;;;;;;;16.92;81.05;100501.97;5042242;28;20474;-56
2022/11/01 10:38:46;;;;;;;0.30;0.20;;;;;;;17.05;81.52;100497.69;5034660;28;21092;-56
2022/11/01 10:41:42;;;;;;;0.70;0.60;;;;;;;17.15;81.98;100500.78;5034030;28;20581;-56
2022/11/01 10:44:15;;;;;;;0.50;0.40;;;;;;;17.23;81.82;100501.22;5037081;28;20451;-54
2022/11/01 10:46:45;;;;;;;0.57;0.43;;;;;;;17.28;79.68;100506.38;5033820;28;20954;-55
2022/11/01 10:49:26;;;;;;;0.40;0.30;;;;;;;17.42;78.92;100511.88;5040788;28;20450;-56
2022/11/01 10:52:16;;;;;;;0.40;0.30;;;;;;;17.37;79.06;100513.94;5043118;28;20451;-56
2022/11/01 10:54:44;;;;;;;1.63;0.60;;;;;;;17.27;77.31;100509.97;5041686;28;20969;-56
2022/11/01 10:57:35;;;;;;;1.07;0.80;;;;;;;17.45;78.43;100506.34;5043988;28;20532;-56
2022/11/01 11:00:05;;;;;;;0.50;0.40;;;;;;;17.30;77.77;100505.34;5040655;28;20500;-56
2022/11/01 11:02:41;;;;;;;1.10;1.00;;;;;;;17.55;78.11;100512.09;5038573;28;20451;-55
2022/11/01 11:05:12;;;;;;;0.50;0.50;;;;;;;17.41;75.86;100504.78;5041179;28;20810;-56
2022/11/01 11:07:39;;;;;;;0.80;0.57;;;;;;;17.55;76.05;100510.28;5038229;28;20947;-56
2022/11/01 11:10:18;;;;;;;2.77;0.53;;;;;;;17.58;75.42;100511.94;5039777;28;20430;-56
2022/11/01 11:12:54;;;;;;;0.50;0.30;;;;;;;17.57;75.22;100507.50;5038794;28;20493;-57
2022/11/01 11:15:36;;;;;;;0.50;0.40;;;;;;;17.51;75.05;100503.31;5038863;28;20471;-56
2022/11/01 11:18:12;;;;;;;0.70;0.60;;;;;;;17.66;75.64;100504.28;5040904;28;20448;-57
2022/11/01 11:20:39;;;;;;;1.03;0.50;;;;;;;17.94;74.57;100503.69;5044211;28;20465;-56
2022/11/01 11:23:10;;;;;;;1.87;0.90;;;;;;;17.77;74.85;100504.63;5043116;28;20508;-57
2022/11/01 11:25:36;;;;;;;0.40;0.30;;;;;;;17.60;76.01;100493.88;5047213;28;20478;-56
2022/11/01 11:28:03;;;;;;;0.77;0.60;;;;;;;17.44;76.67;100502.78;5051279;28;20422;-55
2022/11/01 11:30:33;;;;;;;5.80;0.60;;;;;;;17.72;77.00;100496.81;5038782;28;20441;-56
2022/11/01 11:33:01;;;;;;;1.73;0.40;;;;;;;17.66;76.95;100491.72;5026846;28;20516;-56
2022/11/01 11:35:31;;;;;;;6.23;0.63;;;;;;;17.50;76.73;100503.41;5040401;28;20459;-56
2022/11/01 11:38:04;;;;;;;7.83;0.60;;;;;;;17.79;76.28;100504.53;5049902;28;20439;-56
2022/11/01 11:40:38;;;;;;;0.40;0.30;;;;;;;17.45;76.34;100506.34;5040407;28;20521;-57